createdAt,value
2022-09-10T00:02:13.397Z,100444.63
2022-09-10T00:04:40.301Z,100443.25
2022-09-10T00:07:07.244Z,100440.41
2022-09-10T00:09:34.337Z,100436.19
2022-09-10T00:12:03.160Z,100434.22
2022-09-10T00:14:30.073Z,100445.88
2022-09-10T00:16:57.706Z,100434.69
2022-09-10T00:19:25.097Z,100439.19
2022-09-10T00:21:52.042Z,100449.84
2022-09-10T00:24:18.993Z,100444.97
2022-09-10T00:26:46.136Z,100447.97
2022-09-10T00:29:15.972Z,100451.00
2022-09-10T00:31:43.664Z,100450.19
2022-09-10T00:34:12.353Z,100446.31
2022-09-10T00:36:41.312Z,100454.56
2022-09-10T00:39:15.076Z,100453.72
2022-09-10T00:41:44.264Z,100444.22
2022-09-10T00:44:42.086Z,100444.91
2022-09-10T00:47:38.793Z,100454.56
2022-09-10T00:50:36.069Z,100459.41
2022-09-10T00:53:06.140Z,100457.91
2022-09-10T00:55:35.165Z,100451.00
2022-09-10T00:58:04.939Z,100444.31
2022-09-10T01:00:32.047Z,100453.97
2022-09-10T01:02:59.840Z,100457.78
2022-09-10T01:05:27.141Z,100455.75
2022-09-10T01:07:54.078Z,100458.41
2022-09-10T01:10:25.729Z,100460.72
2022-09-10T01:13:25.604Z,100455.25
2022-09-10T01:16:09.379Z,100464.38
2022-09-10T01:19:01.991Z,100463.16
2022-09-10T01:21:40.099Z,100466.13
2022-09-10T01:24:10.280Z,100469.09
2022-09-10T01:27:04.731Z,100459.28
2022-09-10T01:29:40.876Z,100463.47
2022-09-10T01:32:15.536Z,100461.63
2022-09-10T01:35:08.133Z,100467.81
2022-09-10T01:37:38.531Z,100468.28
2022-09-10T01:40:06.850Z,100462.03
2022-09-10T01:42:38.297Z,100468.09
2022-09-10T01:45:06.770Z,100470.69
2022-09-10T01:47:47.372Z,100470.19
2022-09-10T01:50:38.872Z,100474.81
2022-09-10T01:53:36.381Z,100464.63
2022-09-10T01:56:11.998Z,100467.97
2022-09-10T01:58:44.324Z,100474.19
2022-09-10T02:01:32.099Z,100467.22
2022-09-10T02:04:05.411Z,100475.34
2022-09-10T02:06:36.476Z,100478.69
2022-09-10T02:09:04.444Z,100475.50
2022-09-10T02:11:31.946Z,100475.97
2022-09-10T02:14:02.131Z,100462.72
2022-09-10T02:17:02.606Z,100463.41
2022-09-10T02:19:29.698Z,100469.13
2022-09-10T02:21:57.626Z,100465.31
2022-09-10T02:24:25.377Z,100467.53
2022-09-10T02:26:52.357Z,100452.00
2022-09-10T02:29:19.493Z,100463.78
2022-09-10T02:31:47.545Z,100452.75
2022-09-10T02:34:16.128Z,100457.41
2022-09-10T02:36:47.019Z,100456.19
2022-09-10T02:39:14.752Z,100455.03
2022-09-10T02:41:42.289Z,100456.56
2022-09-10T02:44:09.438Z,100456.41
2022-09-10T02:46:37.968Z,100460.06
2022-09-10T02:49:04.924Z,100455.88
2022-09-10T02:51:37.110Z,100462.84
2022-09-10T02:54:04.962Z,100466.38
2022-09-10T02:56:36.152Z,100461.72
2022-09-10T02:59:04.224Z,100462.72
2022-09-10T03:01:32.883Z,100462.34
2022-09-10T03:04:03.497Z,100468.50
2022-09-10T03:06:31.620Z,100464.00
2022-09-10T03:08:58.492Z,100468.88
2022-09-10T03:11:27.642Z,100461.72
2022-09-10T03:13:55.551Z,100466.06
2022-09-10T03:16:24.512Z,100460.19
2022-09-10T03:18:52.558Z,100458.47
2022-09-10T03:21:22.499Z,100470.41
2022-09-10T03:23:51.422Z,100465.63
2022-09-10T03:26:25.395Z,100465.75
2022-09-10T03:28:53.790Z,100460.69
2022-09-10T03:31:23.195Z,100466.06
2022-09-10T03:33:52.242Z,100468.03
2022-09-10T03:36:21.104Z,100465.69
2022-09-10T03:38:49.956Z,100462.56
2022-09-10T03:41:16.891Z,100470.38
2022-09-10T03:43:44.570Z,100469.41
2022-09-10T03:46:12.265Z,100466.44
2022-09-10T03:48:43.801Z,100455.31
2022-09-10T03:51:11.949Z,100461.53
2022-09-10T03:53:39.847Z,100453.22
2022-09-10T03:56:08.659Z,100460.06
2022-09-10T03:58:36.127Z,100466.47
2022-09-10T04:01:04.754Z,100465.03
2022-09-10T04:03:35.481Z,100470.53
2022-09-10T04:06:02.408Z,100470.44
2022-09-10T04:08:29.459Z,100473.34
2022-09-10T04:11:01.895Z,100475.34
2022-09-10T04:13:29.336Z,100477.22
2022-09-10T04:15:57.843Z,100468.44
2022-09-10T04:18:26.774Z,100468.31
2022-09-10T04:20:54.716Z,100470.06
2022-09-10T04:23:22.276Z,100470.09
2022-09-10T04:25:50.447Z,100468.13
2022-09-10T04:28:17.373Z,100480.50
2022-09-10T04:30:47.186Z,100474.50
2022-09-10T04:33:15.294Z,100474.03
2022-09-10T04:35:43.403Z,100468.22
2022-09-10T04:38:12.170Z,100473.94
2022-09-10T04:40:40.401Z,100472.63
2022-09-10T04:43:08.962Z,100482.81
2022-09-10T04:45:40.853Z,100480.31
2022-09-10T04:48:08.406Z,100477.13
2022-09-10T04:50:36.429Z,100477.94
2022-09-10T04:53:17.103Z,100479.59
2022-09-10T04:55:47.303Z,100480.06
2022-09-10T04:58:15.624Z,100475.19
2022-09-10T05:00:44.945Z,100473.16
2022-09-10T05:03:13.402Z,100479.75
2022-09-10T05:05:44.727Z,100475.34
2022-09-10T05:08:12.925Z,100480.63
2022-09-10T05:10:41.427Z,100470.84
2022-09-10T05:13:08.823Z,100473.91
2022-09-10T05:15:36.411Z,100479.22
2022-09-10T05:18:05.421Z,100479.28
2022-09-10T05:20:35.896Z,100481.75
2022-09-10T05:23:02.960Z,100485.13
2022-09-10T05:28:22.017Z,100480.25
2022-09-10T05:30:59.049Z,100477.41
2022-09-10T05:33:28.241Z,100465.81
2022-09-10T05:35:55.614Z,100483.50
2022-09-10T05:38:28.556Z,100479.75
2022-09-10T05:40:57.218Z,100457.13
2022-09-10T05:43:24.426Z,100477.88
2022-09-10T05:45:52.414Z,100478.00
2022-09-10T05:48:21.101Z,100478.13
2022-09-10T05:50:49.213Z,100472.59
2022-09-10T05:53:17.138Z,100474.25
2022-09-10T05:55:46.149Z,100473.31
2022-09-10T05:58:13.782Z,100481.28
2022-09-10T06:00:43.324Z,100467.88
2022-09-10T06:03:10.736Z,100472.28
2022-09-10T06:05:50.532Z,100468.03
2022-09-10T06:08:21.799Z,100468.69
2022-09-10T06:11:02.702Z,100475.78
2022-09-10T06:13:35.961Z,100469.66
2022-09-10T06:16:05.214Z,100475.50
2022-09-10T06:18:33.624Z,100468.06
2022-09-10T06:21:08.143Z,100462.91
2022-09-10T06:23:39.239Z,100466.47
2022-09-10T06:26:10.132Z,100465.25
2022-09-10T06:28:38.139Z,100464.19
2022-09-10T06:31:07.225Z,100461.72
2022-09-10T06:33:37.430Z,100457.16
2022-09-10T06:36:06.487Z,100471.28
2022-09-10T06:38:33.954Z,100466.72
2022-09-10T06:41:06.177Z,100473.81
2022-09-10T06:43:45.005Z,100464.69
2022-09-10T06:47:01.709Z,100468.84
2022-09-10T06:49:14.314Z,100468.00
2022-09-10T06:51:46.735Z,100457.84
2022-09-10T06:54:14.849Z,100461.97
2022-09-10T06:56:43.069Z,100461.94
2022-09-10T06:59:10.266Z,100457.38
2022-09-10T07:01:43.448Z,100459.00
2022-09-10T07:04:10.920Z,100460.44
2022-09-10T07:06:38.456Z,100452.56
2022-09-10T07:09:09.691Z,100457.13
2022-09-10T07:11:45.479Z,100465.44
2022-09-10T07:14:14.626Z,100465.00
2022-09-10T07:16:41.946Z,100453.34
2022-09-10T07:19:09.916Z,100454.75
2022-09-10T07:21:43.773Z,100439.72
2022-09-10T07:24:15.910Z,100435.50
2022-09-10T07:27:01.491Z,100449.75
2022-09-10T07:29:31.341Z,100458.84
2022-09-10T07:31:59.015Z,100452.53
2022-09-10T07:34:27.237Z,100441.53
2022-09-10T07:36:56.942Z,100442.00
2022-09-10T07:39:25.931Z,100445.50
2022-09-10T07:41:54.135Z,100441.16
2022-09-10T07:44:26.199Z,100444.31
2022-09-10T07:46:53.473Z,100443.50
2022-09-10T07:49:21.277Z,100449.06
2022-09-10T07:51:57.644Z,100433.13
2022-09-10T07:54:29.122Z,100446.94
2022-09-10T07:56:57.520Z,100437.00
2022-09-10T07:59:25.990Z,100424.44
2022-09-10T08:02:00.377Z,100436.09
2022-09-10T08:04:36.455Z,100429.00
2022-09-10T08:07:06.000Z,100425.34
2022-09-10T08:09:35.725Z,100414.47
2022-09-10T08:12:04.410Z,100412.19
2022-09-10T08:14:31.886Z,100432.00
2022-09-10T08:16:59.030Z,100403.06
2022-09-10T08:19:26.201Z,100426.66
2022-09-10T08:21:54.215Z,100414.00
2022-09-10T08:24:29.433Z,100399.25
2022-09-10T08:26:56.587Z,100396.09
2022-09-10T08:29:23.546Z,100417.00
2022-09-10T08:31:50.904Z,100408.22
2022-09-10T08:34:27.195Z,100403.91
2022-09-10T08:37:03.516Z,100392.72
2022-09-10T08:39:33.086Z,100399.31
2022-09-10T08:42:05.764Z,100410.31
2022-09-10T08:45:03.342Z,100395.34
2022-09-10T08:47:53.598Z,100393.25
2022-09-10T08:50:24.143Z,100394.16
2022-09-10T08:53:08.188Z,100400.75
2022-09-10T08:55:48.698Z,100377.69
2022-09-10T09:01:14.536Z,100376.56
2022-09-10T09:03:47.597Z,100375.16
2022-09-10T09:06:23.028Z,100380.22
2022-09-10T09:08:55.715Z,100381.38
2022-09-10T09:11:46.574Z,100377.13
2022-09-10T09:14:33.693Z,100373.09
2022-09-10T09:17:30.646Z,100370.66
2022-09-10T09:20:10.892Z,100369.53
2022-09-10T09:23:16.204Z,100370.03
2022-09-10T09:25:49.874Z,100361.75
2022-09-10T09:28:43.805Z,100368.13
2022-09-10T09:31:23.829Z,100364.75
2022-09-10T09:33:55.477Z,100374.31
2022-09-10T09:36:32.398Z,100366.69
2022-09-10T09:38:59.740Z,100365.22
2022-09-10T09:41:32.043Z,100361.06
2022-09-10T09:44:19.783Z,100356.44
2022-09-10T09:46:46.753Z,100348.94
2022-09-10T09:49:17.496Z,100347.91
2022-09-10T09:51:47.637Z,100344.56
2022-09-10T09:57:16.044Z,100329.41
2022-09-10T09:59:43.042Z,100330.84
2022-09-10T10:02:12.742Z,100331.56
2022-09-10T10:04:42.402Z,100328.09
2022-09-10T10:07:09.768Z,100329.97
2022-09-10T10:09:42.924Z,100331.63
2022-09-10T10:12:20.328Z,100326.66
2022-09-10T10:14:47.475Z,100326.06
2022-09-10T10:17:37.021Z,100324.88
2022-09-10T10:20:12.489Z,100307.53
2022-09-10T10:22:44.480Z,100315.72
2022-09-10T10:25:43.220Z,100317.19
2022-09-10T10:28:17.997Z,100317.00
2022-09-10T10:30:53.656Z,100306.66
2022-09-10T10:33:29.902Z,100298.66
2022-09-10T10:36:19.847Z,100304.63
2022-09-10T10:38:55.551Z,100294.09
2022-09-10T10:41:34.855Z,100299.84
2022-09-10T10:44:40.851Z,100302.97
2022-09-10T10:47:25.529Z,100291.50
2022-09-10T10:50:09.208Z,100290.81
2022-09-10T10:53:12.169Z,100278.88
2022-09-10T10:55:47.605Z,100280.97
2022-09-10T10:58:16.798Z,100273.38
2022-09-10T11:00:51.539Z,100274.75
2022-09-10T11:03:21.694Z,100267.13
2022-09-10T11:05:51.670Z,100261.63
2022-09-10T11:08:20.538Z,100266.38
2022-09-10T11:11:02.212Z,100251.19
2022-09-10T11:13:54.097Z,100249.25
2022-09-10T11:16:33.281Z,100254.00
2022-09-10T11:19:35.859Z,100250.38
2022-09-10T11:25:22.254Z,100243.47
2022-09-10T11:28:04.683Z,100241.84
2022-09-10T11:30:33.691Z,100235.25
2022-09-10T11:33:23.527Z,100227.47
2022-09-10T11:36:25.453Z,100223.22
2022-09-10T11:39:14.029Z,100218.00
2022-09-10T11:41:42.784Z,100211.09
2022-09-10T11:44:16.473Z,100209.69
2022-09-10T11:46:45.420Z,100217.69
2022-09-10T11:49:23.262Z,100201.88
2022-09-10T11:51:50.668Z,100195.53
2022-09-10T11:54:28.824Z,100198.81
2022-09-10T11:57:00.381Z,100191.94
2022-09-10T11:59:42.062Z,100199.28
2022-09-10T12:02:41.030Z,100185.25
2022-09-10T12:05:17.184Z,100187.53
2022-09-10T12:08:21.584Z,100177.78
2022-09-10T12:11:25.174Z,100180.47
2022-09-10T12:13:52.827Z,100184.09
2022-09-10T12:16:42.429Z,100168.41
2022-09-10T12:19:17.461Z,100176.50
2022-09-10T12:21:58.392Z,100181.00
2022-09-10T12:24:33.867Z,100174.00
2022-09-10T12:27:02.465Z,100176.13
2022-09-10T12:29:33.318Z,100162.41
2022-09-10T12:32:12.497Z,100158.03
2022-09-10T12:34:40.693Z,100156.72
2022-09-10T12:37:21.082Z,100151.34
2022-09-10T12:39:49.663Z,100149.41
2022-09-10T12:42:34.445Z,100149.03
2022-09-10T12:45:01.577Z,100130.69
2022-09-10T12:47:42.761Z,100141.94
2022-09-10T12:50:33.045Z,100138.31
2022-09-10T12:53:15.121Z,100140.66
2022-09-10T12:56:02.252Z,100136.91
2022-09-10T12:59:10.733Z,100136.84
2022-09-10T13:01:46.663Z,100132.63
2022-09-10T13:04:21.225Z,100134.75
2022-09-10T13:06:48.376Z,100121.56
2022-09-10T13:12:18.683Z,100115.72
2022-09-10T13:14:48.296Z,100113.75
2022-09-10T13:17:38.909Z,100112.25
2022-09-10T13:20:35.641Z,100101.84
2022-09-10T13:23:08.649Z,100100.16
2022-09-10T13:25:42.790Z,100085.69
2022-09-10T13:28:34.289Z,100089.28
2022-09-10T13:31:12.055Z,100084.09
2022-09-10T13:33:51.389Z,100085.81
2022-09-10T13:36:30.390Z,100086.22
2022-09-10T13:39:24.764Z,100073.34
2022-09-10T13:41:57.527Z,100084.25
2022-09-10T13:44:39.091Z,100071.66
2022-09-10T13:47:13.451Z,100074.50
2022-09-10T13:50:05.213Z,100071.72
2022-09-10T13:52:35.780Z,100076.53
2022-09-10T13:55:03.847Z,100076.69
2022-09-10T13:57:41.459Z,100071.09
2022-09-10T14:00:33.749Z,100063.06
2022-09-10T14:03:01.342Z,100064.75
2022-09-10T14:05:34.273Z,100071.78
2022-09-10T14:08:13.501Z,100062.81
2022-09-10T14:11:00.991Z,100052.44
2022-09-10T14:13:35.841Z,100052.00
2022-09-10T14:16:05.266Z,100051.44
2022-09-10T14:18:48.748Z,100046.84
2022-09-10T14:21:17.718Z,100037.16
2022-09-10T14:23:47.159Z,100045.94
2022-09-10T14:26:23.705Z,100039.44
2022-09-10T14:28:57.975Z,100031.28
2022-09-10T14:31:36.963Z,100044.19
2022-09-10T14:34:36.309Z,100043.72
2022-09-10T14:37:43.850Z,100037.22
2022-09-10T14:40:18.332Z,100025.75
2022-09-10T14:42:48.837Z,100028.38
2022-09-10T14:45:40.669Z,100019.03
2022-09-10T14:48:37.372Z,100025.66
2022-09-10T14:51:17.787Z,100024.63
2022-09-10T14:53:46.780Z,100014.94
2022-09-10T14:56:30.742Z,100018.75
2022-09-10T14:59:07.568Z,100020.97
2022-09-10T15:01:38.375Z,100016.06
2022-09-10T15:04:06.645Z,100022.97
2022-09-10T15:06:34.239Z,100015.28
2022-09-10T15:09:01.750Z,100018.91
2022-09-10T15:11:49.715Z,100018.41
2022-09-10T15:14:17.362Z,100000.59
2022-09-10T15:16:44.419Z,100011.47
2022-09-10T15:19:11.987Z,100002.53
2022-09-10T15:21:39.983Z,100021.50
2022-09-10T15:24:17.192Z,100017.13
2022-09-10T15:26:46.317Z,100022.34
2022-09-10T15:29:14.631Z,100013.88
2022-09-10T15:31:42.305Z,99999.66
2022-09-10T15:34:10.254Z,99997.53
2022-09-10T15:36:40.499Z,100005.16
2022-09-10T15:39:09.355Z,100001.84
2022-09-10T15:41:43.773Z,100006.81
2022-09-10T15:44:11.645Z,100019.09
2022-09-10T15:46:45.465Z,100015.47
2022-09-10T15:49:12.701Z,100013.22
2022-09-10T15:51:50.081Z,100015.13
2022-09-10T15:54:17.143Z,100011.00
2022-09-10T15:56:45.489Z,100013.25
2022-09-10T15:59:16.589Z,100008.88
2022-09-10T16:01:44.059Z,100010.06
2022-09-10T16:04:11.253Z,99999.38
2022-09-10T16:06:39.868Z,100006.22
2022-09-10T16:09:10.849Z,100008.81
2022-09-10T16:11:40.269Z,100007.53
2022-09-10T16:14:08.944Z,99996.88
2022-09-10T16:16:37.319Z,100003.16
2022-09-10T16:19:05.574Z,100005.34
2022-09-10T16:21:35.159Z,100005.41
2022-09-10T16:24:04.410Z,100000.44
2022-09-10T16:26:39.543Z,99999.84
2022-09-10T16:29:17.413Z,100004.56
2022-09-10T16:31:46.416Z,99992.88
2022-09-10T16:34:16.993Z,100015.00
2022-09-10T16:36:45.423Z,100013.94
2022-09-10T16:39:15.434Z,100005.44
2022-09-10T16:41:44.669Z,100013.44
2022-09-10T16:44:14.155Z,100018.91
2022-09-10T16:46:41.792Z,100013.94
2022-09-10T16:49:13.619Z,100021.97
2022-09-10T16:51:42.301Z,100012.69
2022-09-10T16:54:10.670Z,100013.19
2022-09-10T16:56:48.604Z,100014.31
2022-09-10T16:59:18.483Z,100020.38
2022-09-10T17:01:47.955Z,100015.28
2022-09-10T17:04:23.387Z,100009.41
2022-09-10T17:06:53.402Z,100022.03
2022-09-10T17:09:20.591Z,100023.81
2022-09-10T17:11:47.538Z,100022.69
2022-09-10T17:14:14.569Z,100022.75
2022-09-10T17:16:42.423Z,100024.47
2022-09-10T17:19:14.616Z,100023.94
2022-09-10T17:21:44.333Z,100013.09
2022-09-10T17:24:13.972Z,100017.28
2022-09-10T17:26:41.774Z,100021.84
2022-09-10T17:31:58.644Z,100009.97
2022-09-10T17:34:26.757Z,99999.88
2022-09-10T17:36:54.344Z,100007.13
2022-09-10T17:39:21.418Z,99995.13
2022-09-10T17:41:48.931Z,99996.16
2022-09-10T17:44:16.850Z,100007.63
2022-09-10T17:46:45.389Z,100009.72
2022-09-10T17:49:25.530Z,99992.19
2022-09-10T17:51:55.517Z,99989.53
2022-09-10T17:54:23.645Z,100000.78
2022-09-10T17:56:55.721Z,99984.34
2022-09-10T17:59:22.754Z,99986.31
2022-09-10T18:01:50.837Z,99990.25
2022-09-10T18:04:18.837Z,99997.09
2022-09-10T18:06:50.163Z,99984.47
2022-09-10T18:09:19.209Z,99983.66
2022-09-10T18:11:47.601Z,99988.50
2022-09-10T18:14:18.851Z,99953.16
2022-09-10T18:16:51.494Z,99974.66
2022-09-10T18:19:18.903Z,99955.00
2022-09-10T18:21:57.622Z,99966.00
2022-09-10T18:24:31.749Z,99962.31
2022-09-10T18:27:04.406Z,99964.63
2022-09-10T18:29:31.813Z,99960.06
2022-09-10T18:32:04.032Z,99961.13
2022-09-10T18:34:39.418Z,99953.84
2022-09-10T18:37:13.131Z,99964.81
2022-09-10T18:39:42.539Z,99956.16
2022-09-10T18:42:10.194Z,99936.94
2022-09-10T18:44:37.387Z,99952.66
2022-09-10T18:47:44.230Z,99949.16
2022-09-10T18:52:59.734Z,99955.19
2022-09-10T18:55:26.817Z,99936.56
2022-09-10T18:57:54.413Z,99954.16
2022-09-10T19:00:21.474Z,99951.28
2022-09-10T19:02:49.491Z,99949.81
2022-09-10T19:05:21.910Z,99948.81
2022-09-10T19:07:49.030Z,99911.94
2022-09-10T19:10:16.386Z,99938.25
2022-09-10T19:12:45.020Z,99939.09
2022-09-10T19:15:12.336Z,99938.66
2022-09-10T19:17:39.942Z,99933.28
2022-09-10T19:20:13.071Z,99944.22
2022-09-10T19:22:41.323Z,99946.50
2022-09-10T19:25:09.342Z,99934.50
2022-09-10T19:30:23.153Z,99942.75
2022-09-10T19:32:50.688Z,99948.97
2022-09-10T19:35:27.454Z,99927.84
2022-09-10T19:37:58.204Z,99942.09
2022-09-10T19:40:25.693Z,99938.59
2022-09-10T19:42:52.864Z,99939.84
2022-09-10T19:45:20.202Z,99931.94
2022-09-10T19:47:47.494Z,99936.53
2022-09-10T19:50:14.700Z,99936.31
2022-09-10T19:52:42.955Z,99947.28
2022-09-10T19:55:13.308Z,99931.94
2022-09-10T19:57:40.308Z,99950.16
2022-09-10T20:00:20.644Z,99953.66
2022-09-10T20:02:57.865Z,99956.13
2022-09-10T20:05:26.268Z,99942.06
2022-09-10T20:07:53.323Z,99923.22
2022-09-10T20:10:20.393Z,99960.69
2022-09-10T20:12:47.517Z,99957.56
2022-09-10T20:15:15.128Z,99945.53
2022-09-10T20:17:43.774Z,99953.00
2022-09-10T20:20:11.332Z,99941.81
2022-09-10T20:22:38.867Z,99954.00
2022-09-10T20:25:06.123Z,99958.97
2022-09-10T20:27:36.798Z,99964.94
2022-09-10T20:30:07.136Z,99971.94
2022-09-10T20:32:34.157Z,99959.94
2022-09-10T20:35:02.904Z,99960.75
2022-09-10T20:37:30.132Z,99958.66
2022-09-10T20:39:57.935Z,99968.59
2022-09-10T20:42:28.048Z,99958.47
2022-09-10T20:44:57.776Z,99968.19
2022-09-10T20:47:29.516Z,99967.75
2022-09-10T20:49:56.513Z,99951.91
2022-09-10T20:52:24.769Z,99965.78
2022-09-10T20:54:51.849Z,99976.53
2022-09-10T20:57:21.132Z,99959.13
2022-09-10T20:59:48.268Z,99976.25
2022-09-10T21:02:20.390Z,99986.75
2022-09-10T21:04:48.424Z,99972.09
2022-09-10T21:07:17.547Z,99982.25
2022-09-10T21:09:46.629Z,99968.34
2022-09-10T21:12:13.630Z,99962.56
2022-09-10T21:14:40.650Z,99962.50
2022-09-10T21:17:09.088Z,99977.38
2022-09-10T21:19:36.180Z,99973.06
2022-09-10T21:22:26.415Z,99968.22
2022-09-10T21:24:53.618Z,99960.09
2022-09-10T21:27:20.610Z,99979.28
2022-09-10T21:29:47.612Z,99979.03
2022-09-10T21:32:14.527Z,99975.97
2022-09-10T21:34:42.250Z,99974.97
2022-09-10T21:39:55.057Z,99963.34
2022-09-10T21:42:22.145Z,99974.84
2022-09-10T21:44:49.110Z,99960.97
2022-09-10T21:47:16.214Z,99964.88
2022-09-10T21:49:43.733Z,99973.19
2022-09-10T21:52:10.984Z,99969.50
2022-09-10T21:54:37.999Z,99965.47
2022-09-10T21:57:08.361Z,99964.41
2022-09-10T21:59:35.356Z,99975.44
2022-09-10T22:02:02.461Z,99966.69
2022-09-10T22:04:29.478Z,99972.09
2022-09-10T22:06:57.637Z,99977.41
2022-09-10T22:09:24.787Z,99973.66
2022-09-10T22:11:54.281Z,99964.34
2022-09-10T22:14:23.641Z,99975.69
2022-09-10T22:16:51.212Z,99970.53
2022-09-10T22:19:20.502Z,99963.72
2022-09-10T22:21:47.755Z,99969.06
2022-09-10T22:24:15.466Z,99962.94
2022-09-10T22:26:44.058Z,99970.47
2022-09-10T22:31:56.756Z,99969.81
2022-09-10T22:34:23.834Z,99954.00
2022-09-10T22:36:50.964Z,99971.28
2022-09-10T22:39:21.713Z,99967.34
2022-09-10T22:41:50.529Z,99959.25
2022-09-10T22:44:18.804Z,99962.75
2022-09-10T22:46:46.494Z,99967.84
2022-09-10T22:49:16.131Z,99954.28
2022-09-10T22:51:43.505Z,99952.50
2022-09-10T22:54:11.003Z,99951.78
2022-09-10T22:56:38.674Z,99949.75
2022-09-10T22:59:06.803Z,99944.22
2022-09-10T23:01:36.703Z,99941.34
2022-09-10T23:04:05.103Z,99939.00
2022-09-10T23:06:34.504Z,99928.47
2022-09-10T23:09:11.119Z,99928.53
2022-09-10T23:11:39.479Z,99925.78
2022-09-10T23:14:11.541Z,99907.97
2022-09-10T23:16:43.480Z,99924.50
2022-09-10T23:19:15.791Z,99925.91
2022-09-10T23:21:44.828Z,99912.19
2022-09-10T23:24:14.289Z,99921.25
2022-09-10T23:26:42.114Z,99917.44
2022-09-10T23:29:09.139Z,99917.19
2022-09-10T23:31:37.791Z,99911.13
2022-09-10T23:34:06.441Z,99910.03
2022-09-10T23:36:38.933Z,99911.63
2022-09-10T23:39:11.980Z,99896.31
2022-09-10T23:41:39.617Z,99911.00
2022-09-10T23:44:06.564Z,99902.47
2022-09-10T23:46:34.751Z,99911.84
2022-09-10T23:49:02.528Z,99910.81
2022-09-10T23:51:29.797Z,99911.84
2022-09-10T23:53:56.752Z,99902.78
2022-09-10T23:56:25.679Z,99899.75
2022-09-10T23:58:53.044Z,99890.81
